Yahata Maru — JL6477 — position and weather

sailwx.info

Track history (hours):
 
Tides and Currents Weather Stations Pressure Air Temp Water Temp Dewpoint Dewpoint Depression Visibility Wind Speed Wind Dir Waves Ship Positions

Yahata Maru

Last reported at 2017-Mar-30 06:32 UTC. Time now 2017-Mar-30 06:40 UTC.
Position N 34°43' E 135°21'.

Length 149 m; draft 4.7 m.

Type: Other ship. MMSI: 431400594.

Date/timePositionNaut miles runAvg speedWind from/ knotsBaromVisibWave heightAir tempDewpointWater temp
2017-Mar-30 06:32N 34°43' E 135°21'6 5.9
2017-Mar-30 05:33N 34°37' E 135°20'5 4.3
2017-Mar-30 04:26N 34°35' E 135°26'0 0.0
2017-Mar-30 03:32N 34°35' E 135°26'0 0.0
2017-Mar-30 02:33N 34°35' E 135°26'6 6.0
2017-Mar-30 01:33N 34°34' E 135°19'1010.3
2017-Mar-30 00:33N 34°27' E 135°10'1210.5
2017-Mar-29 23:26N 34°18' E 135°00'910.5
2017-Mar-29 22:33N 34°09' E 135°00'237 5.8
2017-Mar-28 05:28N 35°06' E 139°40'8 9.1
2017-Mar-28 04:33N 35°13' E 139°46'9 8.7
2017-Mar-28 03:33N 35°21' E 139°42'7 6.9
2017-Mar-28 02:33N 35°28' E 139°43'0 0.0
2017-Mar-28 01:33N 35°28' E 139°43'0 0.0
2017-Mar-28 00:33N 35°28' E 139°43'0 0.1
2017-Mar-27 23:33N 35°28' E 139°43'4 3.9
2017-Mar-27 22:33N 35°28' E 139°47'9 9.2
2017-Mar-27 21:33N 35°32' E 139°57'5 0.3
2017-Mar-27 03:32N 35°34' E 140°03'3 0.3
2017-Mar-26 17:33N 35°32' E 139°59'8 8.0
2017-Mar-26 16:33N 35°28' E 139°51'9 8.9
2017-Mar-26 15:33N 35°21' E 139°45'9 8.5
2017-Mar-26 14:33N 35°12' E 139°47'  
2017-Mar-22 13:22N 34°34' E 134°49'7 8.3
2017-Mar-22 12:33N 34°37' E 134°56'8 7.6
2017-Mar-22 11:33N 34°36' E 135°05'9 9.3
2017-Mar-22 10:33N 34°37' E 135°17'7 6.7
2017-Mar-22 09:33N 34°43' E 135°21'0 0.0
2017-Mar-22 08:29N 34°43' E 135°21'0 0.0
2017-Mar-22 07:29N 34°43' E 135°21'0 0.0
2017-Mar-22 06:29N 34°43' E 135°21'0 0.0
2017-Mar-22 05:29N 34°43' E 135°21'0 0.0
2017-Mar-22 04:29N 34°43' E 135°21'0 0.0
2017-Mar-22 03:33N 34°43' E 135°21'5 5.0
2017-Mar-22 02:33N 34°38' E 135°21'5 4.9
2017-Mar-22 01:33N 34°35' E 135°26'0 0.0
2017-Mar-22 00:30N 34°35' E 135°26'0 0.2
2017-Mar-21 23:33N 34°35' E 135°25'6 6.0
2017-Mar-21 22:33N 34°35' E 135°18'0 0.0
2017-Mar-21 21:32N 34°35' E 135°18'1 1.1
2017-Mar-21 20:33N 34°34' E 135°18'10 9.4
2017-Mar-21 19:33N 34°27' E 135°10'9 9.5
2017-Mar-21 18:33N 34°20' E 135°02'9 9.2
2017-Mar-21 17:33N 34°11' E 134°60'9 8.6
2017-Mar-21 16:33N 34°02' E 135°01'  
Track history (hours):
 
Tides and Currents Weather Stations Pressure Air Temp Water Temp Dewpoint Dewpoint Depression Visibility Wind Speed Wind Dir Waves Ship Positions

Yahata Maru

Last reported at 2017-Mar-30 06:32 UTC. Time now 2017-Mar-30 06:40 UTC.
Position N 34°43' E 135°21'.

Length 149 m; draft 4.7 m.

Type: Other ship. MMSI: 431400594.

Date/timePositionNaut miles runAvg speedWind from/ knotsBaromVisibWave heightAir tempDewpointWater temp
2017-Mar-30 06:32N 34°43' E 135°21'6 5.9
2017-Mar-30 05:33N 34°37' E 135°20'5 4.3
2017-Mar-30 04:26N 34°35' E 135°26'0 0.0
2017-Mar-30 03:32N 34°35' E 135°26'0 0.0
2017-Mar-30 02:33N 34°35' E 135°26'6 6.0
2017-Mar-30 01:33N 34°34' E 135°19'1010.3
2017-Mar-30 00:33N 34°27' E 135°10'1210.5
2017-Mar-29 23:26N 34°18' E 135°00'910.5
2017-Mar-29 22:33N 34°09' E 135°00'237 5.8
2017-Mar-28 05:28N 35°06' E 139°40'8 9.1
2017-Mar-28 04:33N 35°13' E 139°46'9 8.7
2017-Mar-28 03:33N 35°21' E 139°42'7 6.9
2017-Mar-28 02:33N 35°28' E 139°43'0 0.0
2017-Mar-28 01:33N 35°28' E 139°43'0 0.0
2017-Mar-28 00:33N 35°28' E 139°43'0 0.1
2017-Mar-27 23:33N 35°28' E 139°43'4 3.9
2017-Mar-27 22:33N 35°28' E 139°47'9 9.2
2017-Mar-27 21:33N 35°32' E 139°57'5 0.3
2017-Mar-27 03:32N 35°34' E 140°03'3 0.3
2017-Mar-26 17:33N 35°32' E 139°59'8 8.0
2017-Mar-26 16:33N 35°28' E 139°51'9 8.9
2017-Mar-26 15:33N 35°21' E 139°45'9 8.5
2017-Mar-26 14:33N 35°12' E 139°47'  
2017-Mar-22 13:22N 34°34' E 134°49'7 8.3
2017-Mar-22 12:33N 34°37' E 134°56'8 7.6
2017-Mar-22 11:33N 34°36' E 135°05'9 9.3
2017-Mar-22 10:33N 34°37' E 135°17'7 6.7
2017-Mar-22 09:33N 34°43' E 135°21'0 0.0
2017-Mar-22 08:29N 34°43' E 135°21'0 0.0
2017-Mar-22 07:29N 34°43' E 135°21'0 0.0
2017-Mar-22 06:29N 34°43' E 135°21'0 0.0
2017-Mar-22 05:29N 34°43' E 135°21'0 0.0
2017-Mar-22 04:29N 34°43' E 135°21'0 0.0
2017-Mar-22 03:33N 34°43' E 135°21'5 5.0
2017-Mar-22 02:33N 34°38' E 135°21'5 4.9
2017-Mar-22 01:33N 34°35' E 135°26'0 0.0
2017-Mar-22 00:30N 34°35' E 135°26'0 0.2
2017-Mar-21 23:33N 34°35' E 135°25'6 6.0
2017-Mar-21 22:33N 34°35' E 135°18'0 0.0
2017-Mar-21 21:32N 34°35' E 135°18'1 1.1
2017-Mar-21 20:33N 34°34' E 135°18'10 9.4
2017-Mar-21 19:33N 34°27' E 135°10'9 9.5
2017-Mar-21 18:33N 34°20' E 135°02'9 9.2
2017-Mar-21 17:33N 34°11' E 134°60'9 8.6
2017-Mar-21 16:33N 34°02' E 135°01'  

Dump ship's entire track history